sensor_id;sensor_type;location;lat;lon;timestamp;pressure;altitude;pressure_sealevel;temperature;humidity
76050;BME280;64967;50.234;19.224;2023-01-28T18:07:48;99242.91;;;-0.82;82.90
76050;BME280;64967;50.234;19.224;2023-01-28T18:10:16;99267.91;;;-0.73;82.99
76050;BME280;64967;50.234;19.224;2023-01-28T18:12:43;99256.34;;;-0.72;83.31
76050;BME280;64967;50.234;19.224;2023-01-28T18:15:10;99258.50;;;-0.66;83.42
76050;BME280;64967;50.234;19.224;2023-01-28T18:17:37;99262.63;;;-0.62;83.21
76050;BME280;64967;50.234;19.224;2023-01-28T18:20:05;99263.63;;;-0.63;82.66
76050;BME280;64967;50.234;19.224;2023-01-28T18:22:32;99261.69;;;-0.61;83.21
76050;BME280;64967;50.234;19.224;2023-01-28T18:24:59;99270.25;;;-0.58;82.46
76050;BME280;64967;50.234;19.224;2023-01-28T18:27:26;99269.19;;;-0.55;81.76
76050;BME280;64967;50.234;19.224;2023-01-28T18:29:53;99257.63;;;-0.54;82.34
76050;BME280;64967;50.234;19.224;2023-01-28T18:32:20;99267.75;;;-0.48;80.97
76050;BME280;64967;50.234;19.224;2023-01-28T18:34:53;99263.06;;;-0.45;81.49
76050;BME280;64967;50.234;19.224;2023-01-28T18:37:56;99261.75;;;-0.39;81.91
76050;BME280;64967;50.234;19.224;2023-01-28T18:40:47;99260.56;;;-0.35;81.70
76050;BME280;64967;50.234;19.224;2023-01-28T18:43:41;99260.34;;;-0.32;81.19
76050;BME280;64967;50.234;19.224;2023-01-28T18:46:27;99264.03;;;-0.46;82.83
76050;BME280;64967;50.234;19.224;2023-01-28T18:49:13;99271.25;;;-0.59;81.91
76050;BME280;64967;50.234;19.224;2023-01-28T18:51:55;99265.97;;;-0.71;84.68
76050;BME280;64967;50.234;19.224;2023-01-28T18:54:22;99259.59;;;-0.69;83.54
76050;BME280;64967;50.234;19.224;2023-01-28T18:56:50;99259.94;;;-0.73;84.53
76050;BME280;64967;50.234;19.224;2023-01-28T18:59:17;99271.00;;;-0.79;85.67
76050;BME280;64967;50.234;19.224;2023-01-28T19:01:44;99278.53;;;-0.73;87.21
76050;BME280;64967;50.234;19.224;2023-01-28T19:04:13;99280.44;;;-0.75;86.76
76050;BME280;64967;50.234;19.224;2023-01-28T19:06:41;99270.66;;;-0.75;87.03
76050;BME280;64967;50.234;19.224;2023-01-28T19:09:09;99220.31;;;-1.11;87.98
76050;BME280;64967;50.234;19.224;2023-01-28T19:11:38;99272.72;;;-0.78;87.90
76050;BME280;64967;50.234;19.224;2023-01-28T19:14:07;99274.06;;;-0.73;88.62
76050;BME280;64967;50.234;19.224;2023-01-28T19:16:34;99281.47;;;-0.65;87.73
76050;BME280;64967;50.234;19.224;2023-01-28T19:19:03;99274.41;;;-0.77;89.48
76050;BME280;64967;50.234;19.224;2023-01-28T19:21:30;99283.09;;;-0.75;89.56
76050;BME280;64967;50.234;19.224;2023-01-28T19:24:03;99278.28;;;-0.70;89.04
76050;BME280;64967;50.234;19.224;2023-01-28T19:26:41;99283.84;;;-0.73;90.64
76050;BME280;64967;50.234;19.224;2023-01-28T19:29:11;99288.69;;;-0.67;90.27
76050;BME280;64967;50.234;19.224;2023-01-28T19:31:42;99284.88;;;-0.63;89.67
76050;BME280;64967;50.234;19.224;2023-01-28T19:34:10;99284.56;;;-0.71;90.12
76050;BME280;64967;50.234;19.224;2023-01-28T19:36:37;99271.75;;;-0.77;90.69
76050;BME280;64967;50.234;19.224;2023-01-28T19:39:06;99286.59;;;-0.75;90.65
76050;BME280;64967;50.234;19.224;2023-01-28T19:41:34;99284.03;;;-0.76;92.27
76050;BME280;64967;50.234;19.224;2023-01-28T19:44:02;99285.75;;;-0.75;92.21
76050;BME280;64967;50.234;19.224;2023-01-28T19:46:30;99289.75;;;-0.70;92.43
76050;BME280;64967;50.234;19.224;2023-01-28T19:48:57;99286.38;;;-0.72;92.55
76050;BME280;64967;50.234;19.224;2023-01-28T19:51:24;99289.34;;;-0.76;92.17
76050;BME280;64967;50.234;19.224;2023-01-28T19:53:52;99289.84;;;-0.82;92.15
76050;BME280;64967;50.234;19.224;2023-01-28T19:56:21;99294.56;;;-0.75;93.19
76050;BME280;64967;50.234;19.224;2023-01-28T19:58:49;99292.53;;;-0.71;92.68
76050;BME280;64967;50.234;19.224;2023-01-28T20:01:18;99302.69;;;-0.65;91.93
76050;BME280;64967;50.234;19.224;2023-01-28T20:03:49;99289.53;;;-0.67;93.13
76050;BME280;64967;50.234;19.224;2023-01-28T20:06:18;99306.31;;;-0.66;92.55
76050;BME280;64967;50.234;19.224;2023-01-28T20:08:50;99245.03;;;-1.11;92.70
76050;BME280;64967;50.234;19.224;2023-01-28T20:11:18;99306.47;;;-0.80;93.88
76050;BME280;64967;50.234;19.224;2023-01-28T20:13:45;99303.63;;;-0.77;94.12
76050;BME280;64967;50.234;19.224;2023-01-28T20:16:17;99299.03;;;-0.75;93.51
76050;BME280;64967;50.234;19.224;2023-01-28T20:21:18;99304.97;;;-0.96;94.92
76050;BME280;64967;50.234;19.224;2023-01-28T20:23:46;99307.09;;;-1.01;95.51
76050;BME280;64967;50.234;19.224;2023-01-28T20:26:14;99310.47;;;-0.99;96.20
76050;BME280;64967;50.234;19.224;2023-01-28T20:28:41;99307.72;;;-0.97;95.57
76050;BME280;64967;50.234;19.224;2023-01-28T20:31:09;99317.19;;;-1.06;95.68
76050;BME280;64967;50.234;19.224;2023-01-28T20:33:36;99318.09;;;-1.18;96.98
76050;BME280;64967;50.234;19.224;2023-01-28T20:36:07;99318.59;;;-1.13;97.08
76050;BME280;64967;50.234;19.224;2023-01-28T20:38:37;99316.06;;;-1.14;96.27
76050;BME280;64967;50.234;19.224;2023-01-28T20:41:08;99318.81;;;-1.16;95.68
76050;BME280;64967;50.234;19.224;2023-01-28T20:43:37;99315.72;;;-1.10;96.21
76050;BME280;64967;50.234;19.224;2023-01-28T20:46:07;99319.22;;;-1.09;95.99
76050;BME280;64967;50.234;19.224;2023-01-28T20:48:34;99324.72;;;-1.12;96.41
76050;BME280;64967;50.234;19.224;2023-01-28T20:51:09;99320.94;;;-1.08;94.98
76050;BME280;64967;50.234;19.224;2023-01-28T20:53:37;99322.41;;;-1.04;94.33
76050;BME280;64967;50.234;19.224;2023-01-28T20:56:04;99313.31;;;-1.13;94.23
76050;BME280;64967;50.234;19.224;2023-01-28T20:58:33;99311.69;;;-1.15;94.56
76050;BME280;64967;50.234;19.224;2023-01-28T21:01:00;99308.19;;;-1.16;93.85
76050;BME280;64967;50.234;19.224;2023-01-28T21:03:27;99319.84;;;-1.06;93.40
76050;BME280;64967;50.234;19.224;2023-01-28T21:05:54;99322.41;;;-1.04;93.78
76050;BME280;64967;50.234;19.224;2023-01-28T21:08:22;99314.13;;;-1.12;90.48
76050;BME280;64967;50.234;19.224;2023-01-28T21:10:49;99319.59;;;-1.26;91.43
76050;BME280;64967;50.234;19.224;2023-01-28T21:13:16;99325.00;;;-1.28;91.89
76050;BME280;64967;50.234;19.224;2023-01-28T21:15:51;99335.50;;;-1.26;92.73
76050;BME280;64967;50.234;19.224;2023-01-28T21:18:18;99334.66;;;-1.27;92.92
76050;BME280;64967;50.234;19.224;2023-01-28T21:20:45;99339.75;;;-1.24;92.43
76050;BME280;64967;50.234;19.224;2023-01-28T21:23:12;99345.78;;;-1.22;92.78
76050;BME280;64967;50.234;19.224;2023-01-28T21:25:41;99349.59;;;-1.26;92.19
76050;BME280;64967;50.234;19.224;2023-01-28T21:28:09;99351.53;;;-1.28;92.29
76050;BME280;64967;50.234;19.224;2023-01-28T21:30:37;99355.44;;;-1.21;91.36
76050;BME280;64967;50.234;19.224;2023-01-28T21:33:05;99353.44;;;-1.30;91.64
76050;BME280;64967;50.234;19.224;2023-01-28T21:35:39;99361.28;;;-1.28;91.32
76050;BME280;64967;50.234;19.224;2023-01-28T21:38:06;99361.91;;;-1.25;92.04
76050;BME280;64967;50.234;19.224;2023-01-28T21:40:34;99365.63;;;-1.27;91.40
76050;BME280;64967;50.234;19.224;2023-01-28T21:43:01;99361.19;;;-1.27;90.78
76050;BME280;64967;50.234;19.224;2023-01-28T21:45:29;99372.19;;;-1.20;91.36
76050;BME280;64967;50.234;19.224;2023-01-28T21:47:55;99369.16;;;-1.27;90.37
76050;BME280;64967;50.234;19.224;2023-01-28T21:50:23;99368.91;;;-1.24;90.41
76050;BME280;64967;50.234;19.224;2023-01-28T21:52:50;99365.09;;;-1.20;90.13
76050;BME280;64967;50.234;19.224;2023-01-28T21:55:18;99360.22;;;-1.26;89.36
76050;BME280;64967;50.234;19.224;2023-01-28T21:57:45;99365.97;;;-1.32;88.42
76050;BME280;64967;50.234;19.224;2023-01-28T22:00:12;99364.25;;;-1.33;88.56
76050;BME280;64967;50.234;19.224;2023-01-28T22:02:39;99367.66;;;-1.31;89.02
76050;BME280;64967;50.234;19.224;2023-01-28T22:05:07;99368.38;;;-1.29;87.63
76050;BME280;64967;50.234;19.224;2023-01-28T22:07:34;99353.44;;;-1.30;88.89
76050;BME280;64967;50.234;19.224;2023-01-28T22:10:00;99374.31;;;-1.25;87.56
76050;BME280;64967;50.234;19.224;2023-01-28T22:12:27;99366.50;;;-1.27;88.36
76050;BME280;64967;50.234;19.224;2023-01-28T22:14:54;99353.88;;;-1.36;87.08
76050;BME280;64967;50.234;19.224;2023-01-28T22:17:22;99357.25;;;-1.34;88.67
76050;BME280;64967;50.234;19.224;2023-01-28T22:19:49;99357.78;;;-1.29;88.26
76050;BME280;64967;50.234;19.224;2023-01-28T22:22:16;99356.59;;;-1.25;88.09
76050;BME280;64967;50.234;19.224;2023-01-28T22:24:43;99353.75;;;-1.22;88.97
76050;BME280;64967;50.234;19.224;2023-01-28T22:27:10;99355.22;;;-1.30;86.50
76050;BME280;64967;50.234;19.224;2023-01-28T22:29:37;99351.75;;;-1.31;87.05
76050;BME280;64967;50.234;19.224;2023-01-28T22:32:04;99361.94;;;-1.38;87.67
76050;BME280;64967;50.234;19.224;2023-01-28T22:34:31;99370.97;;;-1.40;88.55
76050;BME280;64967;50.234;19.224;2023-01-28T22:36:58;99371.16;;;-1.43;86.79
76050;BME280;64967;50.234;19.224;2023-01-28T22:39:25;99373.41;;;-1.50;86.53
76050;BME280;64967;50.234;19.224;2023-01-28T22:41:52;99378.81;;;-1.51;87.70
76050;BME280;64967;50.234;19.224;2023-01-28T22:44:19;99379.97;;;-1.55;87.61
76050;BME280;64967;50.234;19.224;2023-01-28T22:46:46;99372.56;;;-1.63;87.85
76050;BME280;64967;50.234;19.224;2023-01-28T22:49:13;99386.22;;;-1.56;88.31
76050;BME280;64967;50.234;19.224;2023-01-28T22:51:41;99368.75;;;-1.71;86.53
76050;BME280;64967;50.234;19.224;2023-01-28T22:54:10;99385.69;;;-1.61;87.53
76050;BME280;64967;50.234;19.224;2023-01-28T22:56:37;99378.06;;;-1.66;89.25
76050;BME280;64967;50.234;19.224;2023-01-28T22:59:04;99379.44;;;-1.60;87.57
76050;BME280;64967;50.234;19.224;2023-01-28T23:01:31;99382.63;;;-1.55;88.04
76050;BME280;64967;50.234;19.224;2023-01-28T23:03:58;99383.16;;;-1.63;86.59
76050;BME280;64967;50.234;19.224;2023-01-28T23:06:26;99377.19;;;-1.66;86.49
76050;BME280;64967;50.234;19.224;2023-01-28T23:08:53;99375.53;;;-1.67;84.77
76050;BME280;64967;50.234;19.224;2023-01-28T23:11:22;99379.84;;;-1.66;83.40
76050;BME280;64967;50.234;19.224;2023-01-28T23:13:59;99369.38;;;-1.81;85.37
76050;BME280;64967;50.234;19.224;2023-01-28T23:16:46;99363.09;;;-1.80;87.80
76050;BME280;64967;50.234;19.224;2023-01-28T23:19:32;99366.09;;;-1.71;87.26
76050;BME280;64967;50.234;19.224;2023-01-28T23:22:22;99379.13;;;-1.68;87.27
76050;BME280;64967;50.234;19.224;2023-01-28T23:25:09;99359.81;;;-1.70;87.53
76050;BME280;64967;50.234;19.224;2023-01-28T23:27:37;99370.22;;;-1.67;87.25
76050;BME280;64967;50.234;19.224;2023-01-28T23:30:05;99365.13;;;-1.70;87.61
76050;BME280;64967;50.234;19.224;2023-01-28T23:32:49;99357.91;;;-1.68;88.18
76050;BME280;64967;50.234;19.224;2023-01-28T23:35:18;99358.78;;;-1.68;86.69
76050;BME280;64967;50.234;19.224;2023-01-28T23:37:46;99353.25;;;-1.65;88.69
76050;BME280;64967;50.234;19.224;2023-01-28T23:40:14;99354.72;;;-1.61;86.97
76050;BME280;64967;50.234;19.224;2023-01-28T23:42:46;99346.91;;;-1.62;87.98
76050;BME280;64967;50.234;19.224;2023-01-28T23:45:13;99353.16;;;-1.63;88.54
76050;BME280;64967;50.234;19.224;2023-01-28T23:47:41;99347.09;;;-1.91;89.17
76050;BME280;64967;50.234;19.224;2023-01-28T23:50:08;99339.56;;;-1.97;90.52
76050;BME280;64967;50.234;19.224;2023-01-28T23:52:36;99328.22;;;-1.99;91.63
76050;BME280;64967;50.234;19.224;2023-01-28T23:55:03;99341.69;;;-1.89;91.66
76050;BME280;64967;50.234;19.224;2023-01-28T23:57:30;99342.63;;;-2.03;92.43
76050;BME280;64967;50.234;19.224;2023-01-28T23:59:57;99344.53;;;-2.05;92.99
